createdAt,value
2019-05-02T00:00:50.324Z,11.00
2019-05-02T00:03:16.047Z,13.83
2019-05-02T00:05:41.670Z,13.37
2019-05-02T00:08:07.575Z,8.70
2019-05-02T00:10:33.803Z,12.23
2019-05-02T00:12:59.450Z,10.67
2019-05-02T00:15:25.215Z,6.83
2019-05-02T00:17:50.739Z,7.77
2019-05-02T00:20:16.333Z,9.23
2019-05-02T00:22:41.905Z,10.70
2019-05-02T00:25:11.179Z,10.67
2019-05-02T00:27:37.795Z,12.90
2019-05-02T00:30:04.763Z,8.10
2019-05-02T00:32:31.040Z,12.17
2019-05-02T00:34:56.653Z,13.27
2019-05-02T00:37:24.496Z,12.03
2019-05-02T00:39:50.527Z,13.93
2019-05-02T00:42:17.574Z,12.80
2019-05-02T00:44:47.018Z,11.50
2019-05-02T00:47:13.087Z,13.20
2019-05-02T00:49:38.711Z,15.97
2019-05-02T00:52:04.375Z,13.07
2019-05-02T00:54:30.119Z,17.10
2019-05-02T00:56:55.667Z,28.93
2019-05-02T00:59:21.301Z,13.10
2019-05-02T01:01:54.472Z,15.40
2019-05-02T01:04:23.350Z,22.93
2019-05-02T01:06:50.775Z,22.67
2019-05-02T01:09:16.687Z,20.63
2019-05-02T01:11:42.453Z,27.00
2019-05-02T01:14:08.263Z,17.87
2019-05-02T01:16:33.963Z,20.60
2019-05-02T01:19:00.819Z,26.17
2019-05-02T01:21:26.419Z,24.40
2019-05-02T01:23:51.994Z,21.63
2019-05-02T01:26:17.734Z,22.70
2019-05-02T01:28:49.300Z,23.00
2019-05-02T01:31:18.433Z,24.30
2019-05-02T01:33:46.807Z,22.53
2019-05-02T01:36:14.626Z,28.33
2019-05-02T01:38:44.767Z,26.20
2019-05-02T01:41:10.290Z,29.07
2019-05-02T01:43:35.941Z,31.30
2019-05-02T01:46:01.486Z,25.70
2019-05-02T01:48:27.160Z,30.30
2019-05-02T01:50:52.708Z,31.10
2019-05-02T01:53:18.239Z,23.87
2019-05-02T01:55:43.840Z,32.03
2019-05-02T01:58:09.491Z,34.43
2019-05-02T02:00:35.036Z,25.23
2019-05-02T02:03:04.170Z,26.17
2019-05-02T02:05:32.267Z,22.50
2019-05-02T02:07:57.450Z,19.40
2019-05-02T02:10:23.074Z,25.70
2019-05-02T02:13:03.551Z,26.00
2019-05-02T02:15:16.355Z,27.67
2019-05-02T02:17:41.899Z,25.50
2019-05-02T02:20:13.694Z,31.17
2019-05-02T02:22:41.887Z,30.67
2019-05-02T02:25:26.213Z,29.23
2019-05-02T02:27:54.984Z,30.60
2019-05-02T02:30:24.399Z,33.07
2019-05-02T02:32:47.899Z,26.67
2019-05-02T02:35:13.562Z,26.37
2019-05-02T02:37:39.234Z,29.30
2019-05-02T02:40:04.928Z,32.57
2019-05-02T02:42:31.643Z,28.30
2019-05-02T02:45:00.007Z,31.00
2019-05-02T02:47:25.552Z,35.33
2019-05-02T02:49:55.677Z,39.93
2019-05-02T02:52:18.707Z,30.93
2019-05-02T02:54:45.021Z,35.33
2019-05-02T02:57:20.578Z,38.77
2019-05-02T02:59:38.084Z,34.90
2019-05-02T03:02:09.895Z,32.47
2019-05-02T03:04:31.088Z,35.13
2019-05-02T03:06:56.743Z,34.97
2019-05-02T03:09:26.461Z,34.83
2019-05-02T03:12:07.954Z,37.60
2019-05-02T03:14:41.081Z,47.00
2019-05-02T03:17:02.847Z,43.23
2019-05-02T03:19:28.406Z,36.93
2019-05-02T03:22:00.299Z,39.90
2019-05-02T03:24:21.939Z,37.50
2019-05-02T03:26:48.680Z,42.03
2019-05-02T03:29:14.936Z,42.03
2019-05-02T03:31:40.844Z,39.50
2019-05-02T03:34:06.562Z,40.20
2019-05-02T03:36:36.222Z,38.47
2019-05-02T03:39:06.622Z,42.30
2019-05-02T03:41:30.135Z,41.30
2019-05-02T03:44:10.442Z,42.87
2019-05-02T03:46:24.087Z,42.30
2019-05-02T03:48:49.757Z,41.17
2019-05-02T03:51:21.291Z,46.20
2019-05-02T03:53:42.793Z,49.00
2019-05-02T03:56:11.472Z,46.17
2019-05-02T03:58:36.384Z,42.80
2019-05-02T04:01:03.920Z,47.03
2019-05-02T04:03:34.292Z,39.37
2019-05-02T04:05:57.159Z,46.23
2019-05-02T04:08:22.795Z,47.40
2019-05-02T04:10:52.783Z,39.97
2019-05-02T04:13:17.962Z,53.57
2019-05-02T04:15:44.116Z,47.70
2019-05-02T04:18:15.213Z,41.77
2019-05-02T04:20:37.509Z,40.90
2019-05-02T04:23:04.066Z,38.00
2019-05-02T04:25:33.889Z,38.67
2019-05-02T04:27:59.619Z,47.67
2019-05-02T04:30:25.297Z,44.70
2019-05-02T04:32:55.922Z,39.17
2019-05-02T04:35:18.893Z,45.33
2019-05-02T04:37:44.545Z,47.83
2019-05-02T04:40:12.361Z,45.67
2019-05-02T04:42:39.363Z,49.60
2019-05-02T04:45:20.614Z,40.23
2019-05-02T04:47:32.661Z,44.10
2019-05-02T04:49:58.661Z,49.87
2019-05-02T04:52:24.549Z,44.03
2019-05-02T04:54:50.091Z,45.80
2019-05-02T04:57:18.434Z,41.40
2019-05-02T04:59:43.276Z,44.43
2019-05-02T05:02:09.300Z,34.00
2019-05-02T05:04:41.930Z,37.27
2019-05-02T05:07:02.803Z,35.43
2019-05-02T05:09:28.425Z,36.57
2019-05-02T05:11:58.368Z,44.47
2019-05-02T05:14:22.524Z,41.87
2019-05-02T05:16:51.728Z,44.80
2019-05-02T05:19:17.695Z,47.20
2019-05-02T05:21:43.383Z,37.67
2019-05-02T05:24:10.909Z,38.53
2019-05-02T05:26:43.065Z,47.40
2019-05-02T05:29:08.763Z,38.23
2019-05-02T05:31:34.326Z,37.97
2019-05-02T05:33:59.882Z,40.53
2019-05-02T05:36:32.617Z,36.17
2019-05-02T05:38:52.868Z,41.13
2019-05-02T05:41:22.816Z,38.83
2019-05-02T05:43:49.990Z,34.43
2019-05-02T05:46:13.689Z,39.47
2019-05-02T05:48:41.297Z,40.93
2019-05-02T05:51:07.341Z,40.50
2019-05-02T05:53:33.087Z,34.27
2019-05-02T05:56:02.384Z,38.73
2019-05-02T05:58:28.268Z,35.93
2019-05-02T06:00:55.697Z,35.00
2019-05-02T06:03:21.424Z,37.50
2019-05-02T06:05:47.716Z,38.37
2019-05-02T06:08:18.298Z,36.27
2019-05-02T06:10:43.939Z,37.43
2019-05-02T06:13:11.098Z,33.17
2019-05-02T06:15:38.947Z,45.70
2019-05-02T06:18:04.994Z,33.80
2019-05-02T06:20:31.964Z,31.03
2019-05-02T06:22:59.998Z,32.27
2019-05-02T06:25:36.086Z,38.97
2019-05-02T06:27:55.275Z,31.37
2019-05-02T06:30:21.113Z,40.47
2019-05-02T06:32:50.114Z,41.30
2019-05-02T06:35:17.121Z,32.00
2019-05-02T06:37:50.093Z,35.80
2019-05-02T06:40:14.325Z,32.67
2019-05-02T06:42:40.105Z,29.13
2019-05-02T06:45:06.906Z,32.13
2019-05-02T06:47:35.932Z,32.30
2019-05-02T06:50:01.179Z,31.03
2019-05-02T06:52:32.861Z,34.13
2019-05-02T06:54:57.985Z,33.90
2019-05-02T06:57:26.340Z,29.83
2019-05-02T06:59:54.782Z,34.37
2019-05-02T07:02:20.923Z,32.90
2019-05-02T07:04:47.552Z,34.47
2019-05-02T07:07:13.371Z,32.67
2019-05-02T07:09:41.850Z,34.60
2019-05-02T07:12:09.760Z,42.40
2019-05-02T07:14:35.455Z,41.03
2019-05-02T07:17:05.621Z,32.23
2019-05-02T07:19:38.885Z,36.53
2019-05-02T07:22:04.725Z,60.40
2019-05-02T07:24:31.110Z,84.50
2019-05-02T07:26:58.390Z,35.07
2019-05-02T07:29:42.705Z,38.53
2019-05-02T07:32:09.028Z,33.00
2019-05-02T07:34:34.765Z,35.43
2019-05-02T07:37:00.337Z,43.20
2019-05-02T07:39:26.132Z,39.13
2019-05-02T07:41:51.742Z,35.03
2019-05-02T07:44:18.590Z,35.20
2019-05-02T07:46:51.696Z,28.93
2019-05-02T07:49:12.025Z,28.33
2019-05-02T07:51:37.620Z,33.53
2019-05-02T07:54:03.220Z,36.63
2019-05-02T07:56:28.834Z,32.17
2019-05-02T07:58:54.620Z,42.40
2019-05-02T08:01:22.240Z,41.10
2019-05-02T08:03:47.799Z,45.17
2019-05-02T08:06:13.662Z,50.47
2019-05-02T08:08:39.409Z,47.23
2019-05-02T08:11:05.073Z,53.97
2019-05-02T08:13:31.550Z,47.07
2019-05-02T08:15:57.203Z,50.80
2019-05-02T08:18:25.267Z,41.23
2019-05-02T08:20:51.102Z,47.50
2019-05-02T08:23:20.630Z,48.50
2019-05-02T08:25:46.693Z,53.50
2019-05-02T08:28:16.048Z,43.47
2019-05-02T08:30:42.660Z,49.30
2019-05-02T08:33:08.466Z,49.23
2019-05-02T08:35:34.157Z,205.43
2019-05-02T08:38:00.091Z,51.30
2019-05-02T08:40:25.871Z,52.50
2019-05-02T08:42:51.546Z,58.10
2019-05-02T08:45:17.216Z,60.23
2019-05-02T08:47:42.769Z,39.80
2019-05-02T08:50:09.006Z,46.00
2019-05-02T08:52:36.877Z,45.93
2019-05-02T08:55:04.310Z,44.17
2019-05-02T08:57:34.650Z,45.43
2019-05-02T09:00:00.242Z,38.80
2019-05-02T09:02:40.239Z,40.07
2019-05-02T09:04:58.752Z,40.50
2019-05-02T09:07:23.470Z,41.63
2019-05-02T09:09:49.179Z,37.50
2019-05-02T09:12:15.267Z,43.67
2019-05-02T09:14:42.618Z,41.90
2019-05-02T09:17:13.597Z,41.03
2019-05-02T09:19:35.868Z,43.83
2019-05-02T09:22:02.592Z,37.53
2019-05-02T09:24:28.331Z,37.97
2019-05-02T09:26:53.991Z,41.90
2019-05-02T09:29:19.603Z,38.83
2019-05-02T09:31:46.126Z,44.07
2019-05-02T09:34:11.887Z,41.50
2019-05-02T09:36:38.251Z,38.33
2019-05-02T09:39:05.032Z,38.30
2019-05-02T09:41:32.431Z,39.50
2019-05-02T09:43:58.416Z,35.73
2019-05-02T09:46:24.268Z,34.20
2019-05-02T09:48:51.856Z,37.67
2019-05-02T09:51:17.700Z,38.20
2019-05-02T09:53:43.386Z,37.00
2019-05-02T09:56:09.063Z,36.60
2019-05-02T09:58:34.763Z,39.27
2019-05-02T10:01:11.880Z,40.93
2019-05-02T10:03:37.595Z,42.80
2019-05-02T10:06:03.397Z,40.20
2019-05-02T10:08:29.071Z,39.70
2019-05-02T10:10:54.889Z,35.03
2019-05-02T10:13:22.697Z,34.53
2019-05-02T10:15:47.996Z,37.97
2019-05-02T10:18:14.547Z,32.30
2019-05-02T10:20:41.896Z,40.00
2019-05-02T10:23:12.009Z,34.07
2019-05-02T10:25:43.985Z,36.90
2019-05-02T10:28:03.568Z,41.70
2019-05-02T10:30:33.657Z,43.80
2019-05-02T10:32:58.995Z,45.47
2019-05-02T10:35:37.195Z,43.60
2019-05-02T10:37:56.866Z,36.70
2019-05-02T10:40:22.692Z,41.30
2019-05-02T10:42:48.334Z,44.23
2019-05-02T10:45:16.678Z,38.00
2019-05-02T10:47:42.382Z,38.93
2019-05-02T10:50:11.691Z,32.80
2019-05-02T10:52:39.131Z,37.23
2019-05-02T10:55:05.060Z,29.73
2019-05-02T10:57:32.824Z,34.17
2019-05-02T10:59:58.400Z,35.20
2019-05-02T11:02:26.006Z,40.43
2019-05-02T11:04:54.097Z,38.17
2019-05-02T11:07:22.609Z,38.23
2019-05-02T11:09:47.184Z,32.53
2019-05-02T11:12:16.342Z,35.30
2019-05-02T11:14:51.639Z,35.27
2019-05-02T11:17:22.694Z,41.00
2019-05-02T11:19:52.269Z,36.77
2019-05-02T11:22:17.783Z,31.73
2019-05-02T11:24:43.534Z,38.20
2019-05-02T11:27:09.210Z,34.97
2019-05-02T11:29:34.820Z,29.33
2019-05-02T11:32:02.612Z,38.67
2019-05-02T11:34:28.798Z,30.37
2019-05-02T11:36:54.356Z,35.20
2019-05-02T11:39:27.602Z,37.53
2019-05-02T11:41:47.946Z,32.67
2019-05-02T11:44:13.704Z,35.37
2019-05-02T11:46:42.918Z,35.63
2019-05-02T11:49:06.936Z,39.10
2019-05-02T11:51:32.693Z,31.83
2019-05-02T11:53:59.340Z,36.83
2019-05-02T11:56:25.965Z,30.50
2019-05-02T11:58:52.788Z,34.30
2019-05-02T12:01:19.313Z,27.70
2019-05-02T12:03:48.014Z,31.73
2019-05-02T12:06:19.124Z,29.60
2019-05-02T12:08:45.012Z,29.43
2019-05-02T12:11:16.182Z,29.33
2019-05-02T12:13:36.657Z,26.60
2019-05-02T12:16:03.141Z,28.03
2019-05-02T12:18:28.753Z,24.07
2019-05-02T12:20:54.457Z,32.73
2019-05-02T12:23:20.082Z,28.37
2019-05-02T12:25:45.776Z,28.40
2019-05-02T12:28:12.210Z,36.10
2019-05-02T12:30:37.949Z,31.30
2019-05-02T12:33:04.279Z,27.87
2019-05-02T12:35:29.854Z,25.70
2019-05-02T12:37:55.481Z,29.00
2019-05-02T12:40:21.783Z,31.30
2019-05-02T12:42:49.482Z,32.80
2019-05-02T12:45:15.392Z,34.53
2019-05-02T12:47:42.789Z,34.20
2019-05-02T12:50:08.800Z,30.43
2019-05-02T12:52:34.387Z,31.97
2019-05-02T12:55:02.120Z,34.07
2019-05-02T12:57:27.877Z,24.67
2019-05-02T12:59:53.620Z,31.40
2019-05-02T13:02:26.748Z,34.83
2019-05-02T13:04:52.797Z,30.33
2019-05-02T13:07:18.396Z,29.57
2019-05-02T13:09:44.119Z,27.83
2019-05-02T13:12:13.326Z,29.03
2019-05-02T13:14:39.082Z,29.00
2019-05-02T13:17:05.757Z,28.37
2019-05-02T13:19:41.597Z,26.17
2019-05-02T13:22:12.449Z,25.67
2019-05-02T13:24:42.194Z,24.33
2019-05-02T13:27:09.655Z,24.63
2019-05-02T13:29:35.957Z,28.07
2019-05-02T13:32:03.404Z,26.23
2019-05-02T13:34:33.796Z,22.93
2019-05-02T13:37:00.218Z,20.23
2019-05-02T13:39:32.543Z,21.10
2019-05-02T13:41:58.152Z,22.30
2019-05-02T13:44:29.171Z,19.13
2019-05-02T13:46:54.960Z,22.37
2019-05-02T13:49:21.970Z,20.10
2019-05-02T13:51:47.796Z,17.80
2019-05-02T13:54:13.362Z,18.50
2019-05-02T13:56:45.122Z,19.67
2019-05-02T13:59:12.940Z,12.30
2019-05-02T14:01:38.295Z,13.70
2019-05-02T14:04:10.088Z,15.83
2019-05-02T14:06:37.317Z,15.93
2019-05-02T14:09:18.343Z,14.33
2019-05-02T14:11:56.485Z,15.00
2019-05-02T14:14:23.103Z,14.47
2019-05-02T14:16:49.104Z,11.90
2019-05-02T14:19:14.828Z,12.50
2019-05-02T14:21:42.184Z,12.37
2019-05-02T14:24:07.998Z,14.47
2019-05-02T14:26:34.583Z,21.67
2019-05-02T14:29:02.552Z,12.73
2019-05-02T14:31:28.389Z,13.50
2019-05-02T14:34:12.280Z,14.07
2019-05-02T14:36:37.903Z,15.47
2019-05-02T14:39:06.008Z,15.67
2019-05-02T14:41:40.431Z,11.77
2019-05-02T14:44:02.757Z,11.40
2019-05-02T14:46:33.231Z,15.17
2019-05-02T14:48:56.358Z,17.23
2019-05-02T14:51:27.413Z,11.57
2019-05-02T14:53:52.654Z,12.80
2019-05-02T14:56:26.031Z,12.00
2019-05-02T14:58:52.789Z,11.23
2019-05-02T15:01:22.501Z,14.03
2019-05-02T15:03:46.093Z,12.40
2019-05-02T15:06:12.111Z,11.20
2019-05-02T15:08:43.544Z,14.13
2019-05-02T15:11:05.455Z,12.03
2019-05-02T15:13:32.402Z,16.13
2019-05-02T15:15:58.425Z,11.17
2019-05-02T15:18:24.360Z,9.27
2019-05-02T15:20:52.003Z,14.37
2019-05-02T15:23:19.791Z,8.90
2019-05-02T15:25:47.226Z,14.20
2019-05-02T15:28:18.345Z,8.10
2019-05-02T15:30:49.443Z,7.47
2019-05-02T15:33:17.135Z,10.03
2019-05-02T15:36:03.118Z,10.97
2019-05-02T15:38:29.258Z,10.90
2019-05-02T15:40:59.493Z,15.00
2019-05-02T15:43:22.675Z,11.00
2019-05-02T15:45:48.371Z,11.97
2019-05-02T15:48:21.628Z,12.80
2019-05-02T15:50:50.108Z,17.70
2019-05-02T15:53:20.121Z,12.90
2019-05-02T15:55:45.672Z,6.40
2019-05-02T15:58:16.935Z,12.80
2019-05-02T16:00:47.546Z,12.37
2019-05-02T16:03:13.093Z,11.07
2019-05-02T16:05:41.165Z,11.87
2019-05-02T16:08:08.853Z,18.23
2019-05-02T16:10:38.366Z,13.60
2019-05-02T16:13:03.709Z,14.17
2019-05-02T16:15:30.126Z,6.73
2019-05-02T16:17:56.739Z,4.23
2019-05-02T16:20:25.189Z,3.63
2019-05-02T16:22:52.391Z,4.60
2019-05-02T16:25:19.953Z,3.93
2019-05-02T16:27:48.119Z,12.80
2019-05-02T16:30:15.211Z,5.67
2019-05-02T16:32:44.254Z,6.33
2019-05-02T16:35:15.426Z,6.70
2019-05-02T16:37:38.309Z,7.53
2019-05-02T16:40:06.070Z,5.70
2019-05-02T16:42:32.826Z,6.77
2019-05-02T16:44:58.854Z,7.03
2019-05-02T16:47:24.512Z,7.27
2019-05-02T16:49:53.409Z,10.23
2019-05-02T16:52:18.171Z,9.97
2019-05-02T16:54:43.895Z,8.67
2019-05-02T16:57:09.678Z,5.73
2019-05-02T16:59:35.433Z,8.63
2019-05-02T17:02:07.763Z,5.47
2019-05-02T17:04:29.168Z,7.80
2019-05-02T17:06:56.794Z,8.50
2019-05-02T17:09:43.360Z,8.50
2019-05-02T17:12:11.849Z,11.20
2019-05-02T17:14:36.778Z,5.63
2019-05-02T17:17:02.964Z,10.07
2019-05-02T17:19:31.395Z,8.20
2019-05-02T17:21:57.607Z,8.70
2019-05-02T17:24:26.166Z,9.80
2019-05-02T17:26:51.849Z,11.60
2019-05-02T17:29:21.467Z,12.60
2019-05-02T17:31:50.096Z,11.80
2019-05-02T17:34:14.962Z,10.03
2019-05-02T17:36:42.774Z,10.23
2019-05-02T17:39:10.020Z,11.57
2019-05-02T17:41:37.010Z,13.20
2019-05-02T17:44:03.895Z,14.37
2019-05-02T17:46:30.689Z,13.43
2019-05-02T17:48:56.533Z,9.50
2019-05-02T17:51:37.743Z,13.10
2019-05-02T17:54:02.955Z,8.97
2019-05-02T17:56:28.821Z,13.83
2019-05-02T17:58:58.294Z,13.30
2019-05-02T18:01:31.871Z,13.33
2019-05-02T18:03:57.763Z,6.80
2019-05-02T18:06:32.717Z,10.60
2019-05-02T18:08:55.299Z,10.77
2019-05-02T18:11:22.335Z,9.63
2019-05-02T18:13:48.231Z,10.00
2019-05-02T18:16:16.657Z,11.57
2019-05-02T18:18:45.440Z,12.00
2019-05-02T18:21:09.636Z,15.80
2019-05-02T18:23:35.497Z,21.97
2019-05-02T18:26:04.497Z,10.60
2019-05-02T18:28:29.126Z,18.10
2019-05-02T18:30:57.250Z,15.07
2019-05-02T18:33:23.488Z,13.83
2019-05-02T18:35:49.313Z,12.97
2019-05-02T18:38:20.625Z,20.17
2019-05-02T18:40:43.377Z,16.40
2019-05-02T18:43:09.105Z,25.93
2019-05-02T18:45:34.935Z,22.73
2019-05-02T18:48:05.191Z,16.27
2019-05-02T18:50:29.387Z,14.93
2019-05-02T18:52:55.042Z,16.17
2019-05-02T18:55:23.055Z,15.13
2019-05-02T18:57:48.367Z,11.27
2019-05-02T19:00:14.152Z,10.90
2019-05-02T19:02:39.730Z,14.07
2019-05-02T19:05:06.156Z,17.43
2019-05-02T19:07:35.814Z,13.47
2019-05-02T19:10:05.821Z,15.43
2019-05-02T19:12:28.377Z,23.40
2019-05-02T19:14:57.488Z,12.03
2019-05-02T19:17:21.911Z,15.90
2019-05-02T19:19:47.840Z,16.13
2019-05-02T19:22:16.986Z,16.10
2019-05-02T19:24:41.927Z,12.67
2019-05-02T19:27:12.906Z,12.50
2019-05-02T19:29:39.842Z,18.90
2019-05-02T19:32:05.838Z,18.33
2019-05-02T19:34:32.395Z,11.37
2019-05-02T19:37:03.113Z,7.90
2019-05-02T19:39:27.005Z,19.60
2019-05-02T19:41:52.723Z,17.80
2019-05-02T19:44:21.487Z,10.57
2019-05-02T19:46:46.127Z,9.13
2019-05-02T19:49:16.039Z,19.10
2019-05-02T19:51:39.387Z,13.67
2019-05-02T19:54:06.941Z,10.13
2019-05-02T19:56:43.923Z,9.03
2019-05-02T19:59:03.895Z,10.97
2019-05-02T20:01:29.468Z,17.67
2019-05-02T20:03:56.712Z,27.23
2019-05-02T20:06:22.923Z,14.97
2019-05-02T20:08:48.500Z,11.07
2019-05-02T20:11:15.582Z,11.97
2019-05-02T20:13:41.339Z,11.50
2019-05-02T20:16:12.281Z,10.83
2019-05-02T20:18:43.945Z,10.83
2019-05-02T20:21:23.227Z,10.93
2019-05-02T20:23:44.154Z,7.33
2019-05-02T20:26:15.241Z,12.47
2019-05-02T20:28:37.394Z,8.43
2019-05-02T20:31:03.176Z,15.80
2019-05-02T20:33:29.233Z,6.30
2019-05-02T20:35:55.016Z,11.90
2019-05-02T20:38:21.913Z,17.47
2019-05-02T20:40:47.875Z,15.97
2019-05-02T20:43:13.858Z,13.63
2019-05-02T20:45:39.468Z,8.87
2019-05-02T20:48:05.132Z,7.90
2019-05-02T20:50:31.812Z,11.87
2019-05-02T20:53:01.628Z,10.03
2019-05-02T20:55:26.288Z,10.70
2019-05-02T20:57:52.724Z,12.00
2019-05-02T21:00:23.532Z,10.00
2019-05-02T21:02:49.420Z,9.63
2019-05-02T21:05:16.992Z,9.70
2019-05-02T21:07:53.525Z,23.13
2019-05-02T21:10:26.730Z,12.20
2019-05-02T21:12:52.733Z,11.20
2019-05-02T21:15:18.420Z,18.20
2019-05-02T21:17:44.860Z,16.37
2019-05-02T21:20:12.424Z,15.47
2019-05-02T21:22:38.149Z,13.90
2019-05-02T21:25:05.092Z,20.87
2019-05-02T21:27:32.439Z,17.33
2019-05-02T21:30:00.000Z,21.03
2019-05-02T21:32:28.751Z,13.57
2019-05-02T21:34:54.286Z,16.23
2019-05-02T21:37:19.914Z,13.30
2019-05-02T21:39:45.974Z,17.43
2019-05-02T21:42:11.640Z,13.73
2019-05-02T21:44:37.679Z,8.93
2019-05-02T21:47:06.410Z,13.80
2019-05-02T21:49:36.995Z,9.20
2019-05-02T21:52:13.522Z,12.50
2019-05-02T21:54:40.992Z,19.83
2019-05-02T21:57:08.590Z,12.23
2019-05-02T21:59:34.362Z,13.90
2019-05-02T22:02:02.273Z,10.70
2019-05-02T22:04:27.978Z,13.80
2019-05-02T22:06:53.559Z,17.10
2019-05-02T22:09:19.364Z,11.23
2019-05-02T22:11:45.003Z,9.10
2019-05-02T22:14:10.712Z,11.93
2019-05-02T22:16:38.184Z,10.67
2019-05-02T22:19:04.837Z,15.47
2019-05-02T22:21:32.441Z,11.53
2019-05-02T22:24:08.126Z,7.70
2019-05-02T22:26:25.450Z,21.80
2019-05-02T22:28:53.618Z,9.00
2019-05-02T22:31:18.793Z,17.73
2019-05-02T22:33:44.619Z,16.53
2019-05-02T22:36:12.397Z,16.57
2019-05-02T22:38:57.677Z,8.47
2019-05-02T22:41:23.344Z,13.50
2019-05-02T22:43:48.927Z,10.57
2019-05-02T22:46:16.516Z,14.17
2019-05-02T22:48:42.361Z,12.77
2019-05-02T22:51:08.036Z,8.40
2019-05-02T22:53:33.773Z,13.80
2019-05-02T22:55:59.491Z,11.53
2019-05-02T22:58:25.184Z,22.47
2019-05-02T23:00:52.295Z,9.33
2019-05-02T23:03:18.079Z,11.50
2019-05-02T23:05:43.631Z,11.23
2019-05-02T23:08:09.187Z,13.57
2019-05-02T23:10:35.102Z,10.53
2019-05-02T23:13:02.357Z,15.60
2019-05-02T23:15:28.067Z,12.07
2019-05-02T23:17:53.850Z,10.10
2019-05-02T23:20:19.399Z,14.67
2019-05-02T23:22:44.975Z,15.30
2019-05-02T23:25:29.227Z,8.70
2019-05-02T23:27:56.701Z,11.50
2019-05-02T23:30:23.307Z,11.27
2019-05-02T23:32:48.884Z,14.10
2019-05-02T23:35:15.180Z,22.93
2019-05-02T23:37:42.214Z,12.17
2019-05-02T23:40:08.339Z,11.30
2019-05-02T23:42:34.862Z,15.33
2019-05-02T23:45:02.677Z,17.67
2019-05-02T23:47:27.995Z,12.93
2019-05-02T23:49:53.580Z,15.00
2019-05-02T23:52:19.137Z,10.87
2019-05-02T23:54:52.075Z,7.90
2019-05-02T23:57:12.516Z,9.27
2019-05-02T23:59:39.069Z,13.03
